sensor_id;sensor_type;location;lat;lon;timestamp;P1;durP1;ratioP1;P2;durP2;ratioP2
52744;SDS011;38637;49.984;20.426;2022-10-31T00:00:56;17.33;;;11.43;;
52744;SDS011;38637;49.984;20.426;2022-10-31T00:03:22;13.13;;;9.80;;
52744;SDS011;38637;49.984;20.426;2022-10-31T00:05:48;11.20;;;8.43;;
52744;SDS011;38637;49.984;20.426;2022-10-31T00:08:15;14.25;;;9.15;;
52744;SDS011;38637;49.984;20.426;2022-10-31T00:10:42;10.50;;;8.13;;
52744;SDS011;38637;49.984;20.426;2022-10-31T00:13:08;13.48;;;9.60;;
52744;SDS011;38637;49.984;20.426;2022-10-31T00:15:35;11.50;;;8.10;;
52744;SDS011;38637;49.984;20.426;2022-10-31T00:18:02;13.18;;;9.90;;
52744;SDS011;38637;49.984;20.426;2022-10-31T00:20:28;17.40;;;10.43;;
52744;SDS011;38637;49.984;20.426;2022-10-31T00:22:57;14.73;;;9.57;;
52744;SDS011;38637;49.984;20.426;2022-10-31T00:25:23;15.90;;;9.82;;
52744;SDS011;38637;49.984;20.426;2022-10-31T00:27:49;11.63;;;9.07;;
52744;SDS011;38637;49.984;20.426;2022-10-31T00:30:14;13.90;;;9.33;;
52744;SDS011;38637;49.984;20.426;2022-10-31T00:32:40;11.97;;;9.33;;
52744;SDS011;38637;49.984;20.426;2022-10-31T00:35:05;13.83;;;9.67;;
52744;SDS011;38637;49.984;20.426;2022-10-31T00:37:31;13.20;;;9.23;;
52744;SDS011;38637;49.984;20.426;2022-10-31T00:39:56;12.43;;;9.07;;
52744;SDS011;38637;49.984;20.426;2022-10-31T00:42:21;13.47;;;9.73;;
52744;SDS011;38637;49.984;20.426;2022-10-31T00:44:47;13.13;;;10.60;;
52744;SDS011;38637;49.984;20.426;2022-10-31T00:47:12;19.10;;;10.87;;
52744;SDS011;38637;49.984;20.426;2022-10-31T00:49:37;17.57;;;10.77;;
52744;SDS011;38637;49.984;20.426;2022-10-31T00:52:03;15.53;;;10.30;;
52744;SDS011;38637;49.984;20.426;2022-10-31T00:54:28;14.83;;;9.93;;
52744;SDS011;38637;49.984;20.426;2022-10-31T00:56:55;15.20;;;10.68;;
52744;SDS011;38637;49.984;20.426;2022-10-31T00:59:21;17.03;;;10.90;;
52744;SDS011;38637;49.984;20.426;2022-10-31T01:01:46;23.53;;;11.03;;
52744;SDS011;38637;49.984;20.426;2022-10-31T01:04:12;19.43;;;10.97;;
52744;SDS011;38637;49.984;20.426;2022-10-31T01:06:37;19.27;;;10.80;;
52744;SDS011;38637;49.984;20.426;2022-10-31T01:09:02;15.10;;;10.20;;
52744;SDS011;38637;49.984;20.426;2022-10-31T01:11:28;18.80;;;11.57;;
52744;SDS011;38637;49.984;20.426;2022-10-31T01:13:53;15.60;;;10.10;;
52744;SDS011;38637;49.984;20.426;2022-10-31T01:16:20;17.80;;;10.30;;
52744;SDS011;38637;49.984;20.426;2022-10-31T01:18:47;15.20;;;10.90;;
52744;SDS011;38637;49.984;20.426;2022-10-31T01:21:17;15.23;;;10.53;;
52744;SDS011;38637;49.984;20.426;2022-10-31T01:23:45;20.65;;;10.68;;
52744;SDS011;38637;49.984;20.426;2022-10-31T01:26:12;15.30;;;9.90;;
52744;SDS011;38637;49.984;20.426;2022-10-31T01:28:44;20.73;;;11.50;;
52744;SDS011;38637;49.984;20.426;2022-10-31T01:31:14;13.20;;;9.60;;
52744;SDS011;38637;49.984;20.426;2022-10-31T01:33:39;14.30;;;9.93;;
52744;SDS011;38637;49.984;20.426;2022-10-31T01:36:37;14.90;;;10.07;;
52744;SDS011;38637;49.984;20.426;2022-10-31T01:39:01;17.60;;;11.10;;
52744;SDS011;38637;49.984;20.426;2022-10-31T01:41:30;16.95;;;11.02;;
52744;SDS011;38637;49.984;20.426;2022-10-31T01:43:58;16.48;;;10.18;;
52744;SDS011;38637;49.984;20.426;2022-10-31T01:46:39;16.67;;;11.23;;
52744;SDS011;38637;49.984;20.426;2022-10-31T01:49:13;18.55;;;10.98;;
52744;SDS011;38637;49.984;20.426;2022-10-31T01:51:50;15.30;;;9.98;;
52744;SDS011;38637;49.984;20.426;2022-10-31T01:54:22;14.98;;;10.65;;
52744;SDS011;38637;49.984;20.426;2022-10-31T01:56:52;15.25;;;11.43;;
52744;SDS011;38637;49.984;20.426;2022-10-31T01:59:20;18.00;;;11.63;;
52744;SDS011;38637;49.984;20.426;2022-10-31T02:01:48;20.05;;;10.88;;
52744;SDS011;38637;49.984;20.426;2022-10-31T02:04:15;16.08;;;9.70;;
52744;SDS011;38637;49.984;20.426;2022-10-31T02:06:46;16.25;;;10.20;;
52744;SDS011;38637;49.984;20.426;2022-10-31T02:09:16;12.25;;;9.07;;
52744;SDS011;38637;49.984;20.426;2022-10-31T02:11:48;14.38;;;9.18;;
52744;SDS011;38637;49.984;20.426;2022-10-31T02:14:14;16.83;;;9.73;;
52744;SDS011;38637;49.984;20.426;2022-10-31T02:16:40;14.03;;;8.60;;
52744;SDS011;38637;49.984;20.426;2022-10-31T02:19:05;14.40;;;9.20;;
52744;SDS011;38637;49.984;20.426;2022-10-31T02:21:44;15.48;;;8.63;;
52744;SDS011;38637;49.984;20.426;2022-10-31T02:29:50;13.82;;;9.77;;
52744;SDS011;38637;49.984;20.426;2022-10-31T02:38:23;16.38;;;10.50;;
52744;SDS011;38637;49.984;20.426;2022-10-31T02:49:03;18.45;;;9.77;;
52744;SDS011;38637;49.984;20.426;2022-10-31T02:51:35;29.55;;;11.73;;
52744;SDS011;38637;49.984;20.426;2022-10-31T02:54:01;15.33;;;10.70;;
52744;SDS011;38637;49.984;20.426;2022-10-31T02:56:26;16.33;;;10.43;;
52744;SDS011;38637;49.984;20.426;2022-10-31T02:59:01;19.37;;;12.93;;
52744;SDS011;38637;49.984;20.426;2022-10-31T03:04:10;21.42;;;12.10;;
52744;SDS011;38637;49.984;20.426;2022-10-31T03:06:47;15.65;;;11.98;;
52744;SDS011;38637;49.984;20.426;2022-10-31T03:09:25;20.27;;;11.00;;
52744;SDS011;38637;49.984;20.426;2022-10-31T03:12:10;16.05;;;9.93;;
52744;SDS011;38637;49.984;20.426;2022-10-31T03:14:48;16.55;;;10.85;;
52744;SDS011;38637;49.984;20.426;2022-10-31T03:17:32;17.80;;;10.85;;
52744;SDS011;38637;49.984;20.426;2022-10-31T03:20:02;14.50;;;10.50;;
52744;SDS011;38637;49.984;20.426;2022-10-31T03:22:31;18.92;;;11.23;;
52744;SDS011;38637;49.984;20.426;2022-10-31T03:27:25;17.98;;;10.38;;
52744;SDS011;38637;49.984;20.426;2022-10-31T03:29:54;12.00;;;9.77;;
52744;SDS011;38637;49.984;20.426;2022-10-31T03:32:32;20.27;;;11.48;;
52744;SDS011;38637;49.984;20.426;2022-10-31T03:35:03;17.27;;;11.00;;
52744;SDS011;38637;49.984;20.426;2022-10-31T03:37:32;16.08;;;10.30;;
52744;SDS011;38637;49.984;20.426;2022-10-31T03:40:00;16.35;;;10.82;;
52744;SDS011;38637;49.984;20.426;2022-10-31T03:42:29;16.80;;;9.88;;
52744;SDS011;38637;49.984;20.426;2022-10-31T03:44:58;13.18;;;10.52;;
52744;SDS011;38637;49.984;20.426;2022-10-31T03:47:25;13.77;;;10.30;;
52744;SDS011;38637;49.984;20.426;2022-10-31T03:49:51;16.20;;;10.13;;
52744;SDS011;38637;49.984;20.426;2022-10-31T03:52:36;19.03;;;9.63;;
52744;SDS011;38637;49.984;20.426;2022-10-31T03:58:21;15.77;;;9.95;;
52744;SDS011;38637;49.984;20.426;2022-10-31T04:00:53;17.25;;;10.40;;
52744;SDS011;38637;49.984;20.426;2022-10-31T04:03:22;16.95;;;10.52;;
52744;SDS011;38637;49.984;20.426;2022-10-31T04:05:52;17.27;;;11.07;;
52744;SDS011;38637;49.984;20.426;2022-10-31T04:08:21;15.88;;;9.50;;
52744;SDS011;38637;49.984;20.426;2022-10-31T04:10:52;15.13;;;10.05;;
52744;SDS011;38637;49.984;20.426;2022-10-31T04:13:20;17.67;;;10.57;;
52744;SDS011;38637;49.984;20.426;2022-10-31T04:15:56;13.85;;;9.73;;
52744;SDS011;38637;49.984;20.426;2022-10-31T04:18:22;14.38;;;9.77;;
52744;SDS011;38637;49.984;20.426;2022-10-31T04:20:48;14.68;;;9.35;;
52744;SDS011;38637;49.984;20.426;2022-10-31T04:23:22;16.95;;;10.20;;
52744;SDS011;38637;49.984;20.426;2022-10-31T04:25:49;13.68;;;9.65;;
52744;SDS011;38637;49.984;20.426;2022-10-31T04:28:15;14.30;;;8.73;;
52744;SDS011;38637;49.984;20.426;2022-10-31T04:30:40;13.73;;;9.97;;
52744;SDS011;38637;49.984;20.426;2022-10-31T04:33:05;23.77;;;10.27;;
52744;SDS011;38637;49.984;20.426;2022-10-31T04:35:31;12.37;;;9.70;;
52744;SDS011;38637;49.984;20.426;2022-10-31T04:37:56;16.70;;;8.87;;
52744;SDS011;38637;49.984;20.426;2022-10-31T04:40:21;17.73;;;10.70;;
52744;SDS011;38637;49.984;20.426;2022-10-31T04:42:47;10.87;;;8.57;;
52744;SDS011;38637;49.984;20.426;2022-10-31T04:45:12;18.43;;;9.37;;
52744;SDS011;38637;49.984;20.426;2022-10-31T04:47:38;14.67;;;8.33;;
52744;SDS011;38637;49.984;20.426;2022-10-31T04:50:03;17.23;;;9.97;;
52744;SDS011;38637;49.984;20.426;2022-10-31T04:52:29;16.77;;;8.87;;
52744;SDS011;38637;49.984;20.426;2022-10-31T04:54:54;13.57;;;8.10;;
52744;SDS011;38637;49.984;20.426;2022-10-31T04:57:19;14.37;;;8.57;;
52744;SDS011;38637;49.984;20.426;2022-10-31T04:59:45;11.43;;;8.80;;
52744;SDS011;38637;49.984;20.426;2022-10-31T05:02:10;17.37;;;8.53;;
52744;SDS011;38637;49.984;20.426;2022-10-31T05:04:35;20.57;;;9.23;;
52744;SDS011;38637;49.984;20.426;2022-10-31T05:07:01;14.97;;;9.43;;
52744;SDS011;38637;49.984;20.426;2022-10-31T05:09:26;13.77;;;8.80;;
52744;SDS011;38637;49.984;20.426;2022-10-31T05:11:51;24.33;;;8.53;;
52744;SDS011;38637;49.984;20.426;2022-10-31T05:14:17;14.27;;;8.73;;
52744;SDS011;38637;49.984;20.426;2022-10-31T05:16:42;16.97;;;8.77;;
52744;SDS011;38637;49.984;20.426;2022-10-31T05:19:07;17.50;;;8.80;;
52744;SDS011;38637;49.984;20.426;2022-10-31T05:21:33;15.40;;;8.53;;
52744;SDS011;38637;49.984;20.426;2022-10-31T05:23:58;15.00;;;10.73;;
52744;SDS011;38637;49.984;20.426;2022-10-31T05:26:23;14.53;;;8.53;;
52744;SDS011;38637;49.984;20.426;2022-10-31T05:28:49;15.17;;;9.17;;
52744;SDS011;38637;49.984;20.426;2022-10-31T05:31:14;12.37;;;9.90;;
52744;SDS011;38637;49.984;20.426;2022-10-31T05:33:40;18.00;;;10.17;;
52744;SDS011;38637;49.984;20.426;2022-10-31T05:36:05;18.97;;;10.83;;
52744;SDS011;38637;49.984;20.426;2022-10-31T05:38:30;31.67;;;9.77;;
52744;SDS011;38637;49.984;20.426;2022-10-31T05:40:56;18.50;;;10.00;;
52744;SDS011;38637;49.984;20.426;2022-10-31T05:43:28;17.23;;;9.50;;
52744;SDS011;38637;49.984;20.426;2022-10-31T05:45:54;16.75;;;9.32;;
52744;SDS011;38637;49.984;20.426;2022-10-31T05:48:20;17.85;;;9.77;;
52744;SDS011;38637;49.984;20.426;2022-10-31T05:50:47;16.97;;;10.97;;
52744;SDS011;38637;49.984;20.426;2022-10-31T05:53:13;19.02;;;11.23;;
52744;SDS011;38637;49.984;20.426;2022-10-31T05:55:39;28.23;;;10.53;;
52744;SDS011;38637;49.984;20.426;2022-10-31T05:58:06;18.05;;;10.77;;
52744;SDS011;38637;49.984;20.426;2022-10-31T06:00:32;15.93;;;10.57;;
52744;SDS011;38637;49.984;20.426;2022-10-31T06:03:00;22.48;;;11.23;;
52744;SDS011;38637;49.984;20.426;2022-10-31T06:05:28;20.40;;;9.63;;
52744;SDS011;38637;49.984;20.426;2022-10-31T06:07:53;15.55;;;9.45;;
52744;SDS011;38637;49.984;20.426;2022-10-31T06:10:19;16.70;;;10.47;;
52744;SDS011;38637;49.984;20.426;2022-10-31T06:12:46;18.35;;;10.77;;
52744;SDS011;38637;49.984;20.426;2022-10-31T06:15:11;23.53;;;12.83;;
52744;SDS011;38637;49.984;20.426;2022-10-31T06:17:37;16.17;;;10.03;;
52744;SDS011;38637;49.984;20.426;2022-10-31T06:20:02;21.20;;;10.00;;
52744;SDS011;38637;49.984;20.426;2022-10-31T06:22:29;16.40;;;11.05;;
52744;SDS011;38637;49.984;20.426;2022-10-31T06:24:54;22.83;;;12.00;;
52744;SDS011;38637;49.984;20.426;2022-10-31T06:27:20;22.00;;;11.67;;
52744;SDS011;38637;49.984;20.426;2022-10-31T06:29:45;22.30;;;12.90;;
52744;SDS011;38637;49.984;20.426;2022-10-31T06:32:11;21.83;;;13.07;;
52744;SDS011;38637;49.984;20.426;2022-10-31T06:34:37;20.35;;;12.43;;
52744;SDS011;38637;49.984;20.426;2022-10-31T06:37:05;24.75;;;13.77;;
52744;SDS011;38637;49.984;20.426;2022-10-31T06:39:34;26.58;;;12.85;;
52744;SDS011;38637;49.984;20.426;2022-10-31T06:41:59;22.70;;;12.70;;
52744;SDS011;38637;49.984;20.426;2022-10-31T06:44:24;24.33;;;13.53;;
52744;SDS011;38637;49.984;20.426;2022-10-31T06:46:50;23.63;;;13.37;;
52744;SDS011;38637;49.984;20.426;2022-10-31T06:49:15;24.23;;;13.90;;
52744;SDS011;38637;49.984;20.426;2022-10-31T06:51:41;22.27;;;13.93;;
52744;SDS011;38637;49.984;20.426;2022-10-31T06:54:06;29.50;;;13.97;;
52744;SDS011;38637;49.984;20.426;2022-10-31T06:56:32;24.63;;;13.23;;
52744;SDS011;38637;49.984;20.426;2022-10-31T06:58:57;27.30;;;13.77;;
52744;SDS011;38637;49.984;20.426;2022-10-31T07:01:22;20.63;;;14.47;;
52744;SDS011;38637;49.984;20.426;2022-10-31T07:03:47;31.53;;;14.40;;
52744;SDS011;38637;49.984;20.426;2022-10-31T07:06:13;27.03;;;13.87;;
52744;SDS011;38637;49.984;20.426;2022-10-31T07:08:38;22.53;;;13.80;;
52744;SDS011;38637;49.984;20.426;2022-10-31T07:11:04;28.40;;;14.33;;
52744;SDS011;38637;49.984;20.426;2022-10-31T07:13:29;23.10;;;14.67;;
52744;SDS011;38637;49.984;20.426;2022-10-31T07:15:58;17.23;;;12.07;;
52744;SDS011;38637;49.984;20.426;2022-10-31T07:18:25;21.05;;;13.68;;
52744;SDS011;38637;49.984;20.426;2022-10-31T07:20:51;19.00;;;13.17;;
52744;SDS011;38637;49.984;20.426;2022-10-31T07:23:17;21.70;;;12.75;;
52744;SDS011;38637;49.984;20.426;2022-10-31T07:25:43;22.07;;;12.23;;
52744;SDS011;38637;49.984;20.426;2022-10-31T07:28:08;18.53;;;11.87;;
52744;SDS011;38637;49.984;20.426;2022-10-31T07:30:35;17.77;;;11.70;;
52744;SDS011;38637;49.984;20.426;2022-10-31T07:33:01;21.90;;;12.38;;
52744;SDS011;38637;49.984;20.426;2022-10-31T07:35:27;19.73;;;12.00;;
52744;SDS011;38637;49.984;20.426;2022-10-31T07:37:53;20.83;;;12.05;;
52744;SDS011;38637;49.984;20.426;2022-10-31T07:40:19;18.25;;;12.07;;
52744;SDS011;38637;49.984;20.426;2022-10-31T07:42:46;19.02;;;11.43;;
52744;SDS011;38637;49.984;20.426;2022-10-31T07:45:16;18.90;;;10.80;;
52744;SDS011;38637;49.984;20.426;2022-10-31T07:47:43;16.63;;;11.10;;
52744;SDS011;38637;49.984;20.426;2022-10-31T07:50:11;16.90;;;11.00;;
52744;SDS011;38637;49.984;20.426;2022-10-31T07:53:04;13.90;;;10.27;;
52744;SDS011;38637;49.984;20.426;2022-10-31T07:55:32;18.20;;;11.27;;
52744;SDS011;38637;49.984;20.426;2022-10-31T08:00:31;19.17;;;9.63;;
52744;SDS011;38637;49.984;20.426;2022-10-31T08:03:17;15.95;;;10.27;;
52744;SDS011;38637;49.984;20.426;2022-10-31T08:05:44;15.30;;;9.00;;
52744;SDS011;38637;49.984;20.426;2022-10-31T08:08:10;17.58;;;9.10;;
52744;SDS011;38637;49.984;20.426;2022-10-31T08:10:36;18.20;;;8.83;;
52744;SDS011;38637;49.984;20.426;2022-10-31T08:13:03;16.37;;;8.53;;
52744;SDS011;38637;49.984;20.426;2022-10-31T08:15:30;17.15;;;8.68;;
52744;SDS011;38637;49.984;20.426;2022-10-31T08:17:56;12.52;;;8.35;;
52744;SDS011;38637;49.984;20.426;2022-10-31T08:20:22;12.50;;;7.93;;
52744;SDS011;38637;49.984;20.426;2022-10-31T08:25:27;14.23;;;7.47;;
52744;SDS011;38637;49.984;20.426;2022-10-31T08:27:54;13.20;;;8.00;;
52744;SDS011;38637;49.984;20.426;2022-10-31T08:32:47;12.60;;;7.20;;
52744;SDS011;38637;49.984;20.426;2022-10-31T08:35:21;17.77;;;8.32;;
52744;SDS011;38637;49.984;20.426;2022-10-31T08:37:51;10.93;;;7.77;;
52744;SDS011;38637;49.984;20.426;2022-10-31T08:40:17;14.68;;;7.90;;
52744;SDS011;38637;49.984;20.426;2022-10-31T08:42:42;16.50;;;8.53;;
52744;SDS011;38637;49.984;20.426;2022-10-31T08:45:08;19.13;;;8.40;;
52744;SDS011;38637;49.984;20.426;2022-10-31T08:47:33;13.97;;;8.47;;
52744;SDS011;38637;49.984;20.426;2022-10-31T08:49:59;11.83;;;7.57;;
52744;SDS011;38637;49.984;20.426;2022-10-31T08:52:24;17.03;;;7.43;;
52744;SDS011;38637;49.984;20.426;2022-10-31T08:54:50;15.07;;;8.23;;
52744;SDS011;38637;49.984;20.426;2022-10-31T08:57:15;13.47;;;7.53;;
52744;SDS011;38637;49.984;20.426;2022-10-31T08:59:41;16.67;;;8.70;;
52744;SDS011;38637;49.984;20.426;2022-10-31T09:02:07;21.03;;;8.10;;
52744;SDS011;38637;49.984;20.426;2022-10-31T09:04:32;13.00;;;7.33;;
52744;SDS011;38637;49.984;20.426;2022-10-31T09:06:57;18.43;;;7.77;;
52744;SDS011;38637;49.984;20.426;2022-10-31T09:09:23;15.43;;;7.20;;
52744;SDS011;38637;49.984;20.426;2022-10-31T09:11:48;17.70;;;7.27;;
52744;SDS011;38637;49.984;20.426;2022-10-31T09:14:13;15.30;;;7.27;;
52744;SDS011;38637;49.984;20.426;2022-10-31T09:16:39;13.40;;;6.73;;
52744;SDS011;38637;49.984;20.426;2022-10-31T09:19:04;13.37;;;7.00;;
52744;SDS011;38637;49.984;20.426;2022-10-31T09:21:29;11.50;;;6.70;;
52744;SDS011;38637;49.984;20.426;2022-10-31T09:23:54;12.13;;;7.23;;
52744;SDS011;38637;49.984;20.426;2022-10-31T09:26:20;18.47;;;6.90;;
52744;SDS011;38637;49.984;20.426;2022-10-31T09:28:46;12.63;;;6.87;;
52744;SDS011;38637;49.984;20.426;2022-10-31T09:31:11;12.97;;;6.70;;
52744;SDS011;38637;49.984;20.426;2022-10-31T09:33:37;9.17;;;6.23;;
52744;SDS011;38637;49.984;20.426;2022-10-31T09:36:02;17.40;;;6.53;;
52744;SDS011;38637;49.984;20.426;2022-10-31T09:38:27;9.90;;;6.23;;
52744;SDS011;38637;49.984;20.426;2022-10-31T09:41:03;13.43;;;7.13;;
52744;SDS011;38637;49.984;20.426;2022-10-31T09:46:25;16.50;;;6.80;;
52744;SDS011;38637;49.984;20.426;2022-10-31T09:51:48;12.88;;;6.45;;
52744;SDS011;38637;49.984;20.426;2022-10-31T09:54:28;10.30;;;6.30;;
52744;SDS011;38637;49.984;20.426;2022-10-31T09:56:59;12.77;;;6.05;;
52744;SDS011;38637;49.984;20.426;2022-10-31T09:59:32;13.88;;;6.05;;
52744;SDS011;38637;49.984;20.426;2022-10-31T10:02:04;14.93;;;7.05;;
52744;SDS011;38637;49.984;20.426;2022-10-31T10:04:46;13.85;;;5.95;;
52744;SDS011;38637;49.984;20.426;2022-10-31T10:07:37;16.85;;;5.65;;
52744;SDS011;38637;49.984;20.426;2022-10-31T10:24:03;20.95;;;6.30;;
52744;SDS011;38637;49.984;20.426;2022-10-31T10:26:38;13.45;;;5.70;;
52744;SDS011;38637;49.984;20.426;2022-10-31T10:31:42;11.25;;;4.20;;
52744;SDS011;38637;49.984;20.426;2022-10-31T10:34:30;10.98;;;3.30;;
52744;SDS011;38637;49.984;20.426;2022-10-31T10:37:20;11.88;;;4.97;;
52744;SDS011;38637;49.984;20.426;2022-10-31T10:40:07;8.65;;;3.65;;
52744;SDS011;38637;49.984;20.426;2022-10-31T10:42:41;7.97;;;3.33;;
52744;SDS011;38637;49.984;20.426;2022-10-31T10:45:28;12.50;;;3.67;;
52744;SDS011;38637;49.984;20.426;2022-10-31T10:48:14;19.33;;;4.45;;
52744;SDS011;38637;49.984;20.426;2022-10-31T10:50:47;8.80;;;3.67;;
52744;SDS011;38637;49.984;20.426;2022-10-31T10:55:59;11.65;;;4.25;;
52744;SDS011;38637;49.984;20.426;2022-10-31T10:58:29;11.52;;;3.60;;
52744;SDS011;38637;49.984;20.426;2022-10-31T11:00:54;11.00;;;3.80;;
52744;SDS011;38637;49.984;20.426;2022-10-31T11:03:20;11.38;;;4.57;;
52744;SDS011;38637;49.984;20.426;2022-10-31T11:05:52;12.90;;;4.23;;
52744;SDS011;38637;49.984;20.426;2022-10-31T11:08:27;7.65;;;3.22;;
52744;SDS011;38637;49.984;20.426;2022-10-31T11:13:30;19.92;;;6.13;;
52744;SDS011;38637;49.984;20.426;2022-10-31T11:16:01;11.65;;;4.75;;
52744;SDS011;38637;49.984;20.426;2022-10-31T11:18:30;12.95;;;4.43;;
52744;SDS011;38637;49.984;20.426;2022-10-31T11:20:59;15.45;;;4.40;;
52744;SDS011;38637;49.984;20.426;2022-10-31T11:23:26;9.20;;;5.20;;
52744;SDS011;38637;49.984;20.426;2022-10-31T11:28:23;17.92;;;4.75;;
52744;SDS011;38637;49.984;20.426;2022-10-31T11:33:26;15.97;;;4.67;;
52744;SDS011;38637;49.984;20.426;2022-10-31T11:35:56;17.77;;;5.65;;
52744;SDS011;38637;49.984;20.426;2022-10-31T11:38:23;15.00;;;5.20;;
52744;SDS011;38637;49.984;20.426;2022-10-31T11:40:52;10.07;;;4.60;;
52744;SDS011;38637;49.984;20.426;2022-10-31T11:43:20;10.55;;;4.32;;
52744;SDS011;38637;49.984;20.426;2022-10-31T11:45:47;16.50;;;4.63;;
52744;SDS011;38637;49.984;20.426;2022-10-31T11:48:16;11.93;;;4.67;;
52744;SDS011;38637;49.984;20.426;2022-10-31T11:50:56;12.20;;;4.13;;
52744;SDS011;38637;49.984;20.426;2022-10-31T11:53:27;12.60;;;4.88;;
52744;SDS011;38637;49.984;20.426;2022-10-31T11:56:01;10.45;;;4.55;;
52744;SDS011;38637;49.984;20.426;2022-10-31T11:58:30;9.90;;;3.83;;
52744;SDS011;38637;49.984;20.426;2022-10-31T12:00:56;11.53;;;4.50;;
52744;SDS011;38637;49.984;20.426;2022-10-31T12:06:02;16.33;;;4.87;;
52744;SDS011;38637;49.984;20.426;2022-10-31T12:08:33;11.80;;;5.00;;
52744;SDS011;38637;49.984;20.426;2022-10-31T12:13:58;14.95;;;5.25;;
52744;SDS011;38637;49.984;20.426;2022-10-31T12:16:51;12.02;;;4.50;;
52744;SDS011;38637;49.984;20.426;2022-10-31T12:19:32;14.48;;;4.60;;
52744;SDS011;38637;49.984;20.426;2022-10-31T12:22:05;10.88;;;4.35;;
52744;SDS011;38637;49.984;20.426;2022-10-31T12:24:43;12.35;;;4.95;;
52744;SDS011;38637;49.984;20.426;2022-10-31T12:30:09;15.93;;;4.90;;
52744;SDS011;38637;49.984;20.426;2022-10-31T12:32:40;14.48;;;5.40;;
52744;SDS011;38637;49.984;20.426;2022-10-31T12:44:12;13.80;;;5.35;;
52744;SDS011;38637;49.984;20.426;2022-10-31T12:47:06;15.23;;;5.05;;
52744;SDS011;38637;49.984;20.426;2022-10-31T12:52:43;15.85;;;5.45;;
52744;SDS011;38637;49.984;20.426;2022-10-31T13:00:45;12.48;;;4.78;;
52744;SDS011;38637;49.984;20.426;2022-10-31T13:03:24;10.23;;;4.15;;
52744;SDS011;38637;49.984;20.426;2022-10-31T13:06:13;11.60;;;4.55;;
52744;SDS011;38637;49.984;20.426;2022-10-31T13:08:56;12.00;;;4.78;;
52744;SDS011;38637;49.984;20.426;2022-10-31T13:11:34;15.93;;;4.50;;
52744;SDS011;38637;49.984;20.426;2022-10-31T13:14:07;7.95;;;4.90;;
52744;SDS011;38637;49.984;20.426;2022-10-31T13:16:41;12.30;;;4.43;;
52744;SDS011;38637;49.984;20.426;2022-10-31T13:19:13;11.85;;;4.90;;
52744;SDS011;38637;49.984;20.426;2022-10-31T13:24:35;16.13;;;4.70;;
52744;SDS011;38637;49.984;20.426;2022-10-31T13:27:10;16.08;;;5.75;;
52744;SDS011;38637;49.984;20.426;2022-10-31T13:29:49;13.27;;;4.93;;
52744;SDS011;38637;49.984;20.426;2022-10-31T13:32:29;18.13;;;5.00;;
52744;SDS011;38637;49.984;20.426;2022-10-31T13:35:04;14.43;;;4.97;;
52744;SDS011;38637;49.984;20.426;2022-10-31T13:37:40;15.30;;;5.25;;
52744;SDS011;38637;49.984;20.426;2022-10-31T13:40:14;16.65;;;5.40;;
52744;SDS011;38637;49.984;20.426;2022-10-31T13:42:55;18.35;;;5.50;;
52744;SDS011;38637;49.984;20.426;2022-10-31T13:45:34;16.13;;;4.85;;
52744;SDS011;38637;49.984;20.426;2022-10-31T13:50:32;13.20;;;5.35;;
52744;SDS011;38637;49.984;20.426;2022-10-31T13:53:18;17.15;;;5.22;;
52744;SDS011;38637;49.984;20.426;2022-10-31T13:55:46;13.77;;;4.30;;
52744;SDS011;38637;49.984;20.426;2022-10-31T14:00:45;10.35;;;5.03;;
52744;SDS011;38637;49.984;20.426;2022-10-31T14:03:18;19.05;;;5.28;;
52744;SDS011;38637;49.984;20.426;2022-10-31T14:05:51;18.33;;;7.25;;
52744;SDS011;38637;49.984;20.426;2022-10-31T14:08:18;26.17;;;7.63;;
52744;SDS011;38637;49.984;20.426;2022-10-31T14:10:48;14.15;;;5.90;;
52744;SDS011;38637;49.984;20.426;2022-10-31T14:13:21;12.65;;;5.97;;
52744;SDS011;38637;49.984;20.426;2022-10-31T14:16:02;17.55;;;6.07;;
52744;SDS011;38637;49.984;20.426;2022-10-31T14:18:30;15.85;;;6.93;;
52744;SDS011;38637;49.984;20.426;2022-10-31T14:23:47;13.27;;;6.47;;
52744;SDS011;38637;49.984;20.426;2022-10-31T14:34:18;15.48;;;6.63;;
52744;SDS011;38637;49.984;20.426;2022-10-31T14:37:10;13.98;;;6.18;;
52744;SDS011;38637;49.984;20.426;2022-10-31T14:50:48;19.17;;;6.70;;
52744;SDS011;38637;49.984;20.426;2022-10-31T14:55:50;15.73;;;5.95;;
52744;SDS011;38637;49.984;20.426;2022-10-31T14:58:28;12.40;;;6.38;;
52744;SDS011;38637;49.984;20.426;2022-10-31T15:01:00;14.30;;;5.95;;
52744;SDS011;38637;49.984;20.426;2022-10-31T15:06:03;21.10;;;7.25;;
52744;SDS011;38637;49.984;20.426;2022-10-31T15:08:37;14.05;;;5.75;;
52744;SDS011;38637;49.984;20.426;2022-10-31T15:11:11;19.75;;;7.10;;
52744;SDS011;38637;49.984;20.426;2022-10-31T15:13:46;19.77;;;6.00;;
52744;SDS011;38637;49.984;20.426;2022-10-31T15:16:14;21.60;;;7.25;;
52744;SDS011;38637;49.984;20.426;2022-10-31T15:18:47;28.27;;;7.32;;
52744;SDS011;38637;49.984;20.426;2022-10-31T15:21:16;14.90;;;6.60;;
52744;SDS011;38637;49.984;20.426;2022-10-31T15:23:42;17.83;;;7.90;;
52744;SDS011;38637;49.984;20.426;2022-10-31T15:26:15;19.93;;;8.07;;
52744;SDS011;38637;49.984;20.426;2022-10-31T15:28:43;24.98;;;9.80;;
52744;SDS011;38637;49.984;20.426;2022-10-31T15:31:14;20.70;;;8.95;;
52744;SDS011;38637;49.984;20.426;2022-10-31T15:33:41;22.23;;;8.73;;
52744;SDS011;38637;49.984;20.426;2022-10-31T15:36:20;25.85;;;9.02;;
52744;SDS011;38637;49.984;20.426;2022-10-31T15:38:48;32.25;;;11.57;;
52744;SDS011;38637;49.984;20.426;2022-10-31T15:47:06;25.55;;;10.38;;
52744;SDS011;38637;49.984;20.426;2022-10-31T15:49:46;27.92;;;13.93;;
52744;SDS011;38637;49.984;20.426;2022-10-31T15:55:18;27.17;;;13.50;;
52744;SDS011;38637;49.984;20.426;2022-10-31T15:57:50;36.83;;;14.02;;
52744;SDS011;38637;49.984;20.426;2022-10-31T16:02:49;25.23;;;14.50;;
52744;SDS011;38637;49.984;20.426;2022-10-31T16:05:16;29.23;;;14.23;;
52744;SDS011;38637;49.984;20.426;2022-10-31T16:07:49;21.42;;;13.45;;
52744;SDS011;38637;49.984;20.426;2022-10-31T16:10:23;33.75;;;13.80;;
52744;SDS011;38637;49.984;20.426;2022-10-31T16:12:50;24.15;;;12.68;;
52744;SDS011;38637;49.984;20.426;2022-10-31T16:15:17;32.75;;;13.60;;
52744;SDS011;38637;49.984;20.426;2022-10-31T16:17:47;27.20;;;14.93;;
52744;SDS011;38637;49.984;20.426;2022-10-31T16:20:21;38.72;;;20.65;;
52744;SDS011;38637;49.984;20.426;2022-10-31T16:22:50;36.13;;;17.90;;
52744;SDS011;38637;49.984;20.426;2022-10-31T16:25:28;36.55;;;17.30;;
52744;SDS011;38637;49.984;20.426;2022-10-31T16:28:03;45.30;;;22.05;;
52744;SDS011;38637;49.984;20.426;2022-10-31T16:30:42;38.80;;;20.23;;
52744;SDS011;38637;49.984;20.426;2022-10-31T16:35:54;44.85;;;24.88;;
52744;SDS011;38637;49.984;20.426;2022-10-31T16:38:21;45.35;;;23.45;;
52744;SDS011;38637;49.984;20.426;2022-10-31T16:40:46;40.63;;;20.13;;
52744;SDS011;38637;49.984;20.426;2022-10-31T16:43:13;66.23;;;32.60;;
52744;SDS011;38637;49.984;20.426;2022-10-31T16:45:47;50.60;;;28.40;;
52744;SDS011;38637;49.984;20.426;2022-10-31T16:48:14;52.45;;;27.15;;
52744;SDS011;38637;49.984;20.426;2022-10-31T16:50:42;50.33;;;25.92;;
52744;SDS011;38637;49.984;20.426;2022-10-31T16:55:34;56.25;;;26.80;;